createdAt,value
2023-03-07T00:00:52.550Z,0.90
2023-03-07T00:03:20.789Z,0.60
2023-03-07T00:05:47.365Z,0.80
2023-03-07T00:08:13.945Z,0.70
2023-03-07T00:10:40.522Z,0.70
2023-03-07T00:13:07.146Z,0.60
2023-03-07T00:15:33.699Z,0.40
2023-03-07T00:18:00.274Z,0.65
2023-03-07T00:20:26.856Z,0.50
2023-03-07T00:22:53.414Z,0.60
2023-03-07T00:25:19.977Z,0.65
2023-03-07T00:27:52.382Z,0.50
2023-03-07T00:30:19.069Z,0.47
2023-03-07T00:32:45.611Z,0.50
2023-03-07T00:35:12.180Z,0.80
2023-03-07T00:37:38.738Z,0.55
2023-03-07T00:40:07.193Z,0.63
2023-03-07T00:42:33.738Z,0.80
2023-03-07T00:45:00.419Z,0.70
2023-03-07T00:47:27.287Z,0.63
2023-03-07T00:49:53.842Z,0.60
2023-03-07T00:52:20.497Z,1.05
2023-03-07T00:54:47.055Z,0.50
2023-03-07T00:57:13.605Z,0.57
2023-03-07T00:59:40.923Z,0.75
2023-03-07T01:02:07.479Z,0.80
2023-03-07T01:04:34.069Z,0.50
2023-03-07T01:07:00.667Z,0.90
2023-03-07T01:09:27.214Z,0.90
2023-03-07T01:11:53.772Z,0.77
2023-03-07T01:14:20.371Z,0.60
2023-03-07T01:16:46.986Z,1.10
2023-03-07T01:19:13.985Z,1.40
2023-03-07T01:21:42.244Z,1.08
2023-03-07T01:24:12.542Z,1.02
2023-03-07T01:26:39.111Z,1.00
2023-03-07T01:29:07.277Z,0.90
2023-03-07T01:31:34.105Z,0.90
2023-03-07T01:34:02.292Z,0.90
2023-03-07T01:36:31.400Z,0.90
2023-03-07T01:39:02.613Z,1.08
2023-03-07T01:41:32.259Z,1.10
2023-03-07T01:44:05.340Z,1.10
2023-03-07T01:46:45.579Z,1.33
2023-03-07T01:49:22.148Z,0.93
2023-03-07T01:51:53.210Z,1.00
2023-03-07T01:54:20.810Z,0.93
2023-03-07T01:56:47.811Z,0.90
2023-03-07T01:59:24.714Z,0.70
2023-03-07T02:01:51.897Z,1.13
2023-03-07T02:04:27.074Z,0.80
2023-03-07T02:06:53.621Z,0.70
2023-03-07T02:09:21.674Z,1.10
2023-03-07T02:11:48.662Z,1.30
2023-03-07T02:14:15.987Z,1.40
2023-03-07T02:16:43.070Z,1.10
2023-03-07T02:19:48.749Z,1.08
2023-03-07T02:22:17.753Z,0.93
2023-03-07T02:25:03.343Z,1.15
2023-03-07T02:27:31.679Z,0.57
2023-03-07T02:29:58.247Z,0.85
2023-03-07T02:32:25.753Z,1.00
2023-03-07T02:34:52.379Z,1.00
2023-03-07T02:37:26.509Z,0.90
2023-03-07T02:39:53.791Z,1.00
2023-03-07T02:42:31.915Z,1.00
2023-03-07T02:45:03.448Z,1.00
2023-03-07T02:47:30.058Z,1.10
2023-03-07T02:49:56.610Z,0.93
2023-03-07T02:52:23.696Z,1.10
2023-03-07T02:54:50.252Z,1.02
2023-03-07T02:57:16.935Z,1.20
2023-03-07T02:59:44.342Z,1.23
2023-03-07T03:02:15.869Z,0.95
2023-03-07T03:04:42.490Z,0.93
2023-03-07T03:07:09.063Z,0.80
2023-03-07T03:09:36.275Z,1.10
2023-03-07T03:12:02.855Z,0.93
2023-03-07T03:14:29.439Z,1.20
2023-03-07T03:16:56.045Z,0.80
2023-03-07T03:19:22.599Z,0.90
2023-03-07T03:21:51.643Z,0.90
2023-03-07T03:24:18.216Z,1.02
2023-03-07T03:26:44.777Z,0.90
2023-03-07T03:29:11.371Z,1.23
2023-03-07T03:31:37.949Z,0.77
2023-03-07T03:34:05.703Z,1.10
2023-03-07T03:36:32.665Z,0.90
2023-03-07T03:38:59.753Z,0.90
2023-03-07T03:41:26.711Z,0.90
2023-03-07T03:43:53.295Z,0.98
2023-03-07T03:46:20.457Z,0.85
2023-03-07T03:48:54.203Z,1.00
2023-03-07T03:51:21.579Z,1.05
2023-03-07T03:53:48.179Z,1.13
2023-03-07T03:56:22.436Z,0.73
2023-03-07T03:58:51.506Z,1.08
2023-03-07T04:01:19.098Z,1.00
2023-03-07T04:03:47.634Z,1.00
2023-03-07T04:06:18.611Z,0.70
2023-03-07T04:08:46.529Z,1.27
2023-03-07T04:11:13.158Z,1.10
2023-03-07T04:13:39.933Z,0.90
2023-03-07T04:16:06.937Z,1.25
2023-03-07T04:18:34.478Z,0.80
2023-03-07T04:21:01.422Z,1.20
2023-03-07T04:23:28.558Z,1.10
2023-03-07T04:26:00.567Z,1.05
2023-03-07T04:28:31.129Z,1.00
2023-03-07T04:30:57.678Z,1.00
2023-03-07T04:33:24.443Z,1.27
2023-03-07T04:35:51.043Z,1.23
2023-03-07T04:38:17.689Z,1.08
2023-03-07T04:40:44.275Z,0.95
2023-03-07T04:43:10.833Z,1.08
2023-03-07T04:45:37.468Z,1.10
2023-03-07T04:48:04.516Z,1.23
2023-03-07T04:50:31.160Z,1.10
2023-03-07T04:52:57.726Z,1.00
2023-03-07T04:55:24.268Z,0.77
2023-03-07T04:57:52.039Z,0.98
2023-03-07T05:00:19.718Z,1.10
2023-03-07T05:02:48.507Z,1.30
2023-03-07T05:05:15.286Z,1.30
2023-03-07T05:07:42.046Z,1.02
2023-03-07T05:10:10.187Z,0.80
2023-03-07T05:12:36.770Z,0.80
2023-03-07T05:15:03.565Z,1.10
2023-03-07T05:17:31.259Z,0.90
2023-03-07T05:19:57.807Z,0.93
2023-03-07T05:22:24.418Z,0.80
2023-03-07T05:24:51.766Z,0.70
2023-03-07T05:27:18.312Z,0.82
2023-03-07T05:29:44.883Z,0.93
2023-03-07T05:32:11.490Z,1.00
2023-03-07T05:34:38.281Z,0.90
2023-03-07T05:37:05.005Z,0.90
2023-03-07T05:39:31.601Z,0.70
2023-03-07T05:41:58.151Z,0.98
2023-03-07T05:44:26.380Z,0.55
2023-03-07T05:46:52.932Z,0.85
2023-03-07T05:49:19.573Z,0.77
2023-03-07T05:51:46.135Z,0.50
2023-03-07T05:54:12.726Z,0.70
2023-03-07T05:56:40.158Z,0.75
2023-03-07T05:59:07.950Z,0.70
2023-03-07T06:01:35.654Z,0.60
2023-03-07T06:04:02.265Z,0.70
2023-03-07T06:06:29.084Z,0.60
2023-03-07T06:08:57.910Z,0.70
2023-03-07T06:11:24.482Z,0.70
2023-03-07T06:13:51.017Z,0.57
2023-03-07T06:16:17.628Z,0.50
2023-03-07T06:18:44.210Z,0.47
2023-03-07T06:21:13.470Z,0.65
2023-03-07T06:23:40.120Z,0.70
2023-03-07T06:26:08.167Z,0.43
2023-03-07T06:28:35.286Z,0.60
2023-03-07T06:31:01.897Z,0.57
2023-03-07T06:33:28.501Z,0.70
2023-03-07T06:35:55.094Z,0.52
2023-03-07T06:38:21.738Z,0.88
2023-03-07T06:40:56.077Z,0.73
2023-03-07T06:43:22.630Z,0.60
2023-03-07T06:45:49.224Z,0.70
2023-03-07T06:48:15.819Z,0.80
2023-03-07T06:50:42.358Z,0.73
2023-03-07T06:53:09.780Z,0.77
2023-03-07T06:55:36.378Z,0.95
2023-03-07T06:58:02.967Z,0.73
2023-03-07T07:00:33.441Z,0.60
2023-03-07T07:03:00.172Z,0.70
2023-03-07T07:05:26.926Z,0.75
2023-03-07T07:07:53.513Z,0.50
2023-03-07T07:10:20.079Z,0.52
2023-03-07T07:12:46.641Z,0.50
2023-03-07T07:15:13.284Z,0.68
2023-03-07T07:17:40.119Z,0.40
2023-03-07T07:20:11.285Z,0.50
2023-03-07T07:22:37.859Z,0.52
2023-03-07T07:25:08.612Z,0.60
2023-03-07T07:27:36.674Z,0.70
2023-03-07T07:30:04.468Z,0.50
2023-03-07T07:32:31.182Z,0.38
2023-03-07T07:34:57.897Z,0.55
2023-03-07T07:37:24.635Z,0.50
2023-03-07T07:39:51.240Z,0.70
2023-03-07T07:42:17.949Z,0.35
2023-03-07T07:44:46.747Z,0.60
2023-03-07T07:47:13.503Z,0.70
2023-03-07T07:49:40.237Z,0.52
2023-03-07T07:52:06.866Z,0.60
2023-03-07T07:54:33.412Z,0.88
2023-03-07T07:56:59.971Z,0.43
2023-03-07T07:59:27.421Z,0.55
2023-03-07T08:01:55.166Z,0.90
2023-03-07T08:04:21.758Z,0.60
2023-03-07T08:06:48.324Z,0.80
2023-03-07T08:09:14.893Z,0.70
2023-03-07T08:11:42.639Z,1.15
2023-03-07T08:14:09.683Z,0.60
2023-03-07T08:16:36.248Z,0.90
2023-03-07T08:19:02.861Z,0.70
2023-03-07T08:21:29.481Z,0.85
2023-03-07T08:23:56.446Z,0.82
2023-03-07T08:26:23.475Z,1.88
2023-03-07T08:28:50.140Z,1.60
2023-03-07T08:31:23.595Z,1.00
2023-03-07T08:36:16.914Z,1.27
2023-03-07T08:38:43.535Z,1.55
2023-03-07T08:41:10.168Z,2.00
2023-03-07T08:43:39.192Z,1.23
2023-03-07T08:46:06.041Z,1.45
2023-03-07T08:48:32.739Z,1.15
2023-03-07T08:51:05.909Z,1.30
2023-03-07T08:53:32.458Z,1.40
2023-03-07T08:55:59.020Z,1.40
2023-03-07T08:58:25.610Z,1.55
2023-03-07T09:00:52.214Z,1.73
2023-03-07T09:03:18.804Z,1.27
2023-03-07T09:05:45.535Z,1.85
2023-03-07T09:08:12.076Z,1.48
2023-03-07T09:10:38.696Z,1.27
2023-03-07T09:13:05.259Z,1.30
2023-03-07T09:15:31.815Z,1.20
2023-03-07T09:17:58.426Z,1.50
2023-03-07T09:20:24.985Z,1.30
2023-03-07T09:22:53.630Z,1.50
2023-03-07T09:25:20.244Z,1.33
2023-03-07T09:27:47.235Z,1.40
2023-03-07T09:30:15.137Z,1.20
2023-03-07T09:32:41.897Z,1.40
2023-03-07T09:35:08.988Z,0.82
2023-03-07T09:37:35.740Z,1.10
2023-03-07T09:40:05.935Z,1.20
2023-03-07T09:42:34.276Z,1.40
2023-03-07T09:45:03.735Z,1.35
2023-03-07T09:48:07.985Z,1.17
2023-03-07T09:50:51.626Z,1.45
2023-03-07T09:53:30.141Z,1.63
2023-03-07T09:55:58.824Z,1.30
2023-03-07T09:58:30.418Z,1.40
2023-03-07T10:00:59.931Z,2.00
2023-03-07T10:03:38.991Z,1.85
2023-03-07T10:06:18.491Z,2.13
2023-03-07T10:08:45.317Z,2.60
2023-03-07T10:11:29.082Z,2.33
2023-03-07T10:16:58.326Z,2.72
2023-03-07T10:19:30.927Z,2.00
2023-03-07T10:22:05.677Z,2.20
2023-03-07T10:24:55.614Z,2.40
2023-03-07T10:27:27.110Z,2.33
2023-03-07T10:29:55.464Z,2.03
2023-03-07T10:32:50.028Z,2.17
2023-03-07T10:35:19.168Z,2.20
2023-03-07T10:37:51.562Z,1.73
2023-03-07T10:40:27.388Z,1.60
2023-03-07T10:42:54.997Z,2.38
2023-03-07T10:45:21.702Z,1.70
2023-03-07T10:47:48.279Z,1.67
2023-03-07T10:50:14.828Z,2.17
2023-03-07T10:52:50.169Z,1.65
2023-03-07T10:55:36.490Z,1.50
2023-03-07T10:58:25.370Z,1.73
2023-03-07T11:01:08.672Z,2.05
2023-03-07T11:04:01.423Z,2.20
2023-03-07T11:06:39.038Z,1.83
2023-03-07T11:09:30.374Z,1.60
2023-03-07T11:12:06.584Z,1.52
2023-03-07T11:14:53.486Z,1.40
2023-03-07T11:17:25.227Z,1.42
2023-03-07T11:19:55.791Z,1.85
2023-03-07T11:22:33.799Z,1.42
2023-03-07T11:25:15.679Z,1.23
2023-03-07T11:27:45.040Z,2.03
2023-03-07T11:30:18.285Z,1.50
2023-03-07T11:32:58.653Z,1.10
2023-03-07T11:35:34.805Z,1.23
2023-03-07T11:38:17.210Z,1.10
2023-03-07T11:40:51.528Z,1.48
2023-03-07T11:43:24.608Z,1.30
2023-03-07T11:46:20.447Z,1.30
2023-03-07T11:49:00.406Z,1.08
2023-03-07T11:52:02.683Z,1.00
2023-03-07T11:54:53.297Z,1.10
2023-03-07T11:57:37.670Z,0.90
2023-03-07T12:00:26.680Z,1.55
2023-03-07T12:03:30.397Z,1.10
2023-03-07T12:06:14.823Z,1.25
2023-03-07T12:09:02.867Z,1.00
2023-03-07T12:12:04.573Z,0.88
2023-03-07T12:14:49.993Z,0.90
2023-03-07T12:17:37.637Z,1.00
2023-03-07T12:20:30.998Z,1.20
2023-03-07T12:23:15.566Z,1.02
2023-03-07T12:25:47.575Z,1.48
2023-03-07T12:28:23.034Z,0.90
2023-03-07T12:31:14.112Z,1.13
2023-03-07T12:33:57.630Z,0.98
2023-03-07T12:36:30.583Z,1.67
2023-03-07T12:39:02.344Z,1.15
2023-03-07T12:41:42.737Z,1.25
2023-03-07T12:44:28.696Z,0.90
2023-03-07T12:47:00.640Z,1.00
2023-03-07T12:49:50.464Z,1.00
2023-03-07T12:52:48.993Z,0.93
2023-03-07T12:55:27.461Z,1.05
2023-03-07T12:58:06.230Z,1.08
2023-03-07T13:00:37.370Z,1.25
2023-03-07T13:03:06.768Z,1.20
2023-03-07T13:05:37.496Z,1.02
2023-03-07T13:08:06.073Z,0.85
2023-03-07T13:10:32.852Z,0.90
2023-03-07T13:12:59.723Z,0.98
2023-03-07T13:15:44.945Z,1.10
2023-03-07T13:18:31.983Z,0.95
2023-03-07T13:21:09.039Z,0.80
2023-03-07T13:23:36.132Z,0.60
2023-03-07T13:26:05.503Z,0.82
2023-03-07T13:28:44.923Z,0.77
2023-03-07T13:31:15.822Z,0.75
2023-03-07T13:33:42.811Z,0.80
2023-03-07T13:36:35.195Z,0.85
2023-03-07T13:39:02.319Z,0.80
2023-03-07T13:41:49.304Z,0.70
2023-03-07T13:44:40.023Z,0.57
2023-03-07T13:47:41.698Z,0.82
2023-03-07T13:50:36.001Z,0.73
2023-03-07T13:53:13.664Z,0.90
2023-03-07T13:55:44.991Z,0.80
2023-03-07T13:58:18.554Z,0.75
2023-03-07T14:00:51.926Z,0.77
2023-03-07T14:03:27.591Z,0.82
2023-03-07T14:05:55.708Z,0.70
2023-03-07T14:08:24.942Z,0.93
2023-03-07T14:10:57.014Z,0.80
2023-03-07T14:13:33.844Z,0.68
2023-03-07T14:16:07.228Z,0.73
2023-03-07T14:21:29.393Z,0.75
2023-03-07T14:24:14.403Z,0.65
2023-03-07T14:26:44.286Z,0.52
2023-03-07T14:29:19.513Z,0.77
2023-03-07T14:31:47.841Z,0.77
2023-03-07T14:34:22.169Z,0.80
2023-03-07T14:37:04.954Z,0.90
2023-03-07T14:40:08.537Z,0.50
2023-03-07T14:42:35.161Z,0.52
2023-03-07T14:45:17.676Z,0.70
2023-03-07T14:47:50.320Z,0.60
2023-03-07T14:50:19.772Z,0.70
2023-03-07T14:52:47.305Z,0.60
2023-03-07T14:55:18.302Z,0.50
2023-03-07T14:57:46.718Z,0.52
2023-03-07T15:00:13.933Z,0.77
2023-03-07T15:02:47.572Z,0.80
2023-03-07T15:05:35.683Z,0.50
2023-03-07T15:08:02.369Z,0.82
2023-03-07T15:10:33.841Z,0.73
2023-03-07T15:13:01.838Z,0.55
2023-03-07T15:15:42.238Z,0.50
2023-03-07T15:18:28.717Z,0.50
2023-03-07T15:20:58.119Z,0.63
2023-03-07T15:23:31.697Z,0.60
2023-03-07T15:26:12.079Z,0.70
2023-03-07T15:28:42.297Z,0.40
2023-03-07T15:31:09.198Z,0.50
2023-03-07T15:33:36.255Z,0.60
2023-03-07T15:36:13.199Z,0.80
2023-03-07T15:38:45.852Z,0.65
2023-03-07T15:41:52.200Z,0.50
2023-03-07T15:44:19.608Z,0.70
2023-03-07T15:46:52.906Z,0.50
2023-03-07T15:49:22.368Z,0.38
2023-03-07T15:51:52.804Z,0.50
2023-03-07T15:54:30.720Z,0.60
2023-03-07T15:56:59.578Z,0.60
2023-03-07T15:59:37.314Z,0.50
2023-03-07T16:02:32.512Z,0.50
2023-03-07T16:05:03.296Z,0.52
2023-03-07T16:07:29.990Z,0.70
2023-03-07T16:09:56.555Z,0.40
2023-03-07T16:12:24.038Z,0.60
2023-03-07T16:14:52.212Z,0.40
2023-03-07T16:17:21.790Z,0.52
2023-03-07T16:19:48.368Z,0.38
2023-03-07T16:22:16.525Z,0.40
2023-03-07T16:24:43.386Z,0.40
2023-03-07T16:27:16.879Z,0.60
2023-03-07T16:32:13.605Z,0.40
2023-03-07T16:34:40.228Z,0.30
2023-03-07T16:37:06.864Z,0.40
2023-03-07T16:39:33.423Z,0.40
2023-03-07T16:42:01.040Z,0.30
2023-03-07T16:44:28.432Z,0.40
2023-03-07T16:47:05.201Z,0.40
2023-03-07T16:49:31.868Z,0.50
2023-03-07T16:52:05.774Z,0.60
2023-03-07T16:54:33.383Z,0.50
2023-03-07T16:57:01.015Z,0.68
2023-03-07T16:59:38.015Z,0.70
2023-03-07T17:02:16.902Z,0.68
2023-03-07T17:04:44.498Z,0.75
2023-03-07T17:07:31.324Z,0.80
2023-03-07T17:09:58.508Z,0.70
2023-03-07T17:12:25.105Z,0.70
2023-03-07T17:14:51.896Z,0.70
2023-03-07T17:17:22.420Z,0.60
2023-03-07T17:19:49.061Z,0.80
2023-03-07T17:22:20.300Z,0.90
2023-03-07T17:24:46.917Z,0.70
2023-03-07T17:27:13.537Z,0.80
2023-03-07T17:29:43.143Z,0.63
2023-03-07T17:32:09.828Z,0.63
2023-03-07T17:34:37.399Z,0.80
2023-03-07T17:37:04.472Z,0.90
2023-03-07T17:39:32.122Z,0.60
2023-03-07T17:41:59.053Z,0.70
2023-03-07T17:44:26.164Z,0.80
2023-03-07T17:46:53.037Z,0.63
2023-03-07T17:49:20.303Z,0.90
2023-03-07T17:51:48.684Z,0.70
2023-03-07T17:54:15.995Z,0.65
2023-03-07T17:56:42.569Z,0.80
2023-03-07T17:59:09.180Z,0.75
2023-03-07T18:01:40.023Z,0.88
2023-03-07T18:04:06.855Z,1.10
2023-03-07T18:06:34.090Z,0.80
2023-03-07T18:09:01.711Z,0.93
2023-03-07T18:11:28.379Z,0.70
2023-03-07T18:13:54.934Z,0.98
2023-03-07T18:16:24.578Z,0.77
2023-03-07T18:18:59.518Z,0.90
2023-03-07T18:21:29.588Z,0.80
2023-03-07T18:23:56.308Z,0.75
2023-03-07T18:26:23.636Z,0.63
2023-03-07T18:28:50.658Z,0.65
2023-03-07T18:31:21.373Z,0.50
2023-03-07T18:33:51.049Z,0.57
2023-03-07T18:36:18.198Z,0.50
2023-03-07T18:38:46.478Z,0.70
2023-03-07T18:41:15.355Z,0.70
2023-03-07T18:43:42.292Z,0.60
2023-03-07T18:46:11.376Z,0.70
2023-03-07T18:48:37.925Z,0.57
2023-03-07T18:51:10.197Z,0.60
2023-03-07T18:53:37.668Z,0.50
2023-03-07T18:56:12.127Z,0.80
2023-03-07T18:58:39.057Z,0.63
2023-03-07T19:01:19.241Z,0.63
2023-03-07T19:03:47.281Z,0.60
2023-03-07T19:06:14.542Z,0.60
2023-03-07T19:08:41.210Z,0.63
2023-03-07T19:11:10.492Z,0.47
2023-03-07T19:13:37.478Z,0.50
2023-03-07T19:16:08.534Z,0.50
2023-03-07T19:18:36.034Z,0.60
2023-03-07T19:21:06.905Z,0.50
2023-03-07T19:23:33.515Z,0.50
2023-03-07T19:26:04.429Z,0.50
2023-03-07T19:28:31.143Z,0.60
2023-03-07T19:30:57.753Z,0.55
2023-03-07T19:33:25.020Z,0.80
2023-03-07T19:36:11.257Z,0.40
2023-03-07T19:38:38.427Z,0.50
2023-03-07T19:41:06.750Z,0.60
2023-03-07T19:43:33.342Z,0.60
2023-03-07T19:46:00.190Z,0.60
2023-03-07T19:48:26.818Z,0.50
2023-03-07T19:50:53.935Z,0.40
2023-03-07T19:53:20.530Z,0.65
2023-03-07T19:55:47.113Z,0.60
2023-03-07T19:58:13.682Z,0.60
2023-03-07T20:00:46.425Z,0.50
2023-03-07T20:03:15.082Z,0.52
2023-03-07T20:05:50.874Z,0.60
2023-03-07T20:08:17.474Z,0.70
2023-03-07T20:10:44.770Z,0.52
2023-03-07T20:13:13.538Z,0.57
2023-03-07T20:15:40.232Z,0.45
2023-03-07T20:18:06.821Z,0.40
2023-03-07T20:20:36.404Z,0.43
2023-03-07T20:23:02.961Z,0.50
2023-03-07T20:25:30.112Z,0.65
2023-03-07T20:27:56.880Z,0.40
2023-03-07T20:30:24.566Z,0.50
2023-03-07T20:32:51.125Z,0.45
2023-03-07T20:35:19.327Z,0.60
2023-03-07T20:37:45.892Z,0.50
2023-03-07T20:40:12.846Z,0.43
2023-03-07T20:42:40.226Z,0.43
2023-03-07T20:45:07.194Z,0.68
2023-03-07T20:47:36.334Z,0.50
2023-03-07T20:50:03.678Z,0.70
2023-03-07T20:52:30.255Z,0.50
2023-03-07T20:54:56.805Z,0.60
2023-03-07T20:57:23.494Z,0.60
2023-03-07T20:59:54.100Z,0.50
2023-03-07T21:02:20.704Z,0.52
2023-03-07T21:04:49.802Z,0.50
2023-03-07T21:07:16.700Z,0.77
2023-03-07T21:09:50.610Z,0.50
2023-03-07T21:12:17.966Z,0.65
2023-03-07T21:14:44.558Z,0.50
2023-03-07T21:17:13.111Z,0.52
2023-03-07T21:19:39.697Z,0.65
2023-03-07T21:22:06.347Z,0.50
2023-03-07T21:24:32.972Z,0.50
2023-03-07T21:26:59.582Z,0.60
2023-03-07T21:29:26.170Z,0.70
2023-03-07T21:31:56.134Z,0.40
2023-03-07T21:34:22.717Z,0.50
2023-03-07T21:36:55.829Z,0.73
2023-03-07T21:39:23.838Z,0.65
2023-03-07T21:41:50.389Z,0.60
2023-03-07T21:44:17.325Z,0.30
2023-03-07T21:46:45.241Z,0.60
2023-03-07T21:49:13.079Z,0.60
2023-03-07T21:51:39.691Z,0.40
2023-03-07T21:54:06.316Z,0.57
2023-03-07T21:56:32.919Z,0.57
2023-03-07T21:59:01.064Z,0.60
2023-03-07T22:01:28.726Z,0.45
2023-03-07T22:03:56.966Z,0.60
2023-03-07T22:06:24.114Z,0.40
2023-03-07T22:08:50.881Z,0.47
2023-03-07T22:11:17.537Z,0.40
2023-03-07T22:13:44.147Z,0.50
2023-03-07T22:16:16.669Z,0.38
2023-03-07T22:18:43.337Z,0.50
2023-03-07T22:21:13.575Z,0.32
2023-03-07T22:23:40.464Z,0.50
2023-03-07T22:26:08.381Z,0.52
2023-03-07T22:28:36.169Z,0.50
2023-03-07T22:31:08.875Z,0.30
2023-03-07T22:33:35.520Z,0.50
2023-03-07T22:36:05.226Z,0.30
2023-03-07T22:38:31.965Z,0.40
2023-03-07T22:41:12.944Z,0.40
2023-03-07T22:43:39.503Z,0.40
2023-03-07T22:46:06.272Z,0.50
2023-03-07T22:48:33.365Z,0.30
2023-03-07T22:51:00.148Z,0.50
2023-03-07T22:53:32.822Z,0.30
2023-03-07T22:56:00.228Z,0.37
2023-03-07T22:58:30.553Z,0.50
2023-03-07T23:00:57.243Z,0.40
2023-03-07T23:03:23.932Z,0.40
2023-03-07T23:05:50.903Z,0.40
2023-03-07T23:08:17.523Z,0.30
2023-03-07T23:10:44.118Z,0.20
2023-03-07T23:13:10.774Z,0.22
2023-03-07T23:15:40.960Z,0.40
2023-03-07T23:18:07.541Z,0.30
2023-03-07T23:20:37.155Z,0.30
2023-03-07T23:23:03.694Z,0.30
2023-03-07T23:25:30.288Z,0.30
2023-03-07T23:27:57.601Z,0.30
2023-03-07T23:30:24.640Z,0.38
2023-03-07T23:32:51.443Z,0.30
2023-03-07T23:35:21.104Z,0.35
2023-03-07T23:37:48.306Z,0.40
2023-03-07T23:40:14.858Z,0.47
2023-03-07T23:42:41.661Z,0.40
2023-03-07T23:45:08.728Z,0.45
2023-03-07T23:47:35.556Z,0.30
2023-03-07T23:50:02.164Z,0.40
2023-03-07T23:52:28.720Z,0.40
2023-03-07T23:54:55.288Z,0.40
2023-03-07T23:57:23.103Z,0.43
2023-03-07T23:59:54.303Z,0.40
